Time;durP1;ratioP1;P1;durP2;ratioP2;P2;SDS_P1;SDS_P2;PMS_P1;PMS_P2;Temp;Humidity;BMP_temperature;BMP_pressure;BME280_temperature;BME280_humidity;BME280_pressure;Samples;Min_cycle;Max_cycle;Signal;HPM_P1;HPM_P2
2024/02/03 00:01:48;;;;;;;11.52;7.55;;;;;;;10.41;63.92;98490.81;4964716;28;20119;-82
2024/02/03 00:04:14;;;;;;;11.68;6.40;;;;;;;10.26;64.07;98478.03;4941949;28;20478;-84
2024/02/03 00:06:39;;;;;;;12.73;8.02;;;;;;;10.32;64.68;98482.44;4934988;28;20149;-82
2024/02/03 00:09:07;;;;;;;12.60;6.85;;;;;;;10.29;63.63;98477.63;4978123;28;20042;-78
2024/02/03 00:11:34;;;;;;;11.88;7.15;;;;;;;10.45;64.21;98477.16;4957024;28;20042;-78
2024/02/03 00:14:00;;;;;;;10.63;7.00;;;;;;;10.26;64.16;98486.66;4964278;28;20031;-78
2024/02/03 00:16:26;;;;;;;11.85;7.38;;;;;;;10.34;64.36;98487.44;4957487;28;20039;-78
2024/02/03 00:18:51;;;;;;;12.13;7.22;;;;;;;10.25;65.10;98484.28;4951749;28;20045;-78
2024/02/03 00:21:17;;;;;;;13.00;7.35;;;;;;;10.14;65.67;98485.72;4937737;28;20043;-78
2024/02/03 00:23:46;;;;;;;10.95;7.53;;;;;;;10.34;64.95;98487.44;4968561;28;20042;-78
2024/02/03 00:26:11;;;;;;;11.05;7.15;;;;;;;10.30;64.78;98479.22;4965465;28;20526;-78
2024/02/03 00:28:37;;;;;;;10.88;7.15;;;;;;;10.34;64.59;98482.25;4936227;28;20087;-85
2024/02/03 00:31:03;;;;;;;11.88;7.70;;;;;;;10.24;65.06;98470.44;4952852;28;20374;-78
2024/02/03 00:33:29;;;;;;;13.52;7.03;;;;;;;10.36;64.36;98468.00;4971901;28;20026;-78
2024/02/03 00:35:55;;;;;;;11.63;8.00;;;;;;;10.36;65.14;98468.00;4961849;28;20050;-78
2024/02/03 00:38:20;;;;;;;13.35;7.47;;;;;;;10.21;65.89;98459.66;4948028;28;20042;-78
2024/02/03 00:40:46;;;;;;;13.48;8.10;;;;;;;10.12;66.15;98456.50;4973120;28;20069;-81
2024/02/03 00:43:14;;;;;;;12.95;7.80;;;;;;;10.12;66.17;98454.69;4987447;28;20031;-82
2024/02/03 00:45:40;;;;;;;11.27;6.95;;;;;;;10.12;65.74;98454.69;4945615;28;20087;-82
2024/02/03 00:48:06;;;;;;;12.00;8.02;;;;;;;10.32;64.87;98456.41;4966982;28;20024;-83
2024/02/03 00:50:31;;;;;;;12.35;7.50;;;;;;;10.35;65.24;98453.41;4961893;28;20041;-82
2024/02/03 00:52:57;;;;;;;13.80;8.40;;;;;;;10.37;65.09;98453.97;4957976;28;20069;-83
2024/02/03 00:55:22;;;;;;;12.82;8.40;;;;;;;10.35;65.04;98458.59;4955496;28;20047;-82
2024/02/03 00:57:48;;;;;;;13.90;8.15;;;;;;;10.23;66.43;98468.88;4957245;28;20058;-81
2024/02/03 01:00:14;;;;;;;13.70;8.38;;;;;;;10.19;65.78;98472.88;4956545;28;20047;-86
2024/02/03 01:02:41;;;;;;;13.65;8.25;;;;;;;10.28;66.09;98468.22;4953255;28;20039;-83
2024/02/03 01:05:07;;;;;;;15.32;8.75;;;;;;;10.35;65.78;98460.38;4941494;28;20035;-83
2024/02/03 01:07:33;;;;;;;14.52;8.05;;;;;;;10.35;64.80;98448.19;4922625;28;20220;-82
2024/02/03 01:09:58;;;;;;;13.88;8.60;;;;;;;10.43;65.37;98449.72;4960576;28;20178;-78
2024/02/03 01:12:24;;;;;;;14.27;8.70;;;;;;;10.38;66.14;98444.34;4950467;28;20039;-78
2024/02/03 01:14:49;;;;;;;14.82;8.90;;;;;;;10.29;66.23;98449.00;4960395;28;20295;-78
2024/02/03 01:17:15;;;;;;;14.80;9.25;;;;;;;10.35;66.03;98450.78;4953880;28;20570;-78
2024/02/03 01:19:40;;;;;;;15.68;9.02;;;;;;;10.36;66.01;98447.16;4930697;28;20390;-78
2024/02/03 01:22:06;;;;;;;12.80;8.43;;;;;;;10.36;65.80;98451.59;4962425;28;20529;-77
2024/02/03 01:24:32;;;;;;;16.00;8.85;;;;;;;10.23;66.24;98447.22;4957730;28;20043;-77
2024/02/03 01:26:57;;;;;;;14.70;9.27;;;;;;;10.34;66.19;98461.41;4955507;28;20393;-79
2024/02/03 01:29:22;;;;;;;15.68;9.30;;;;;;;10.30;66.68;98448.78;4953139;28;20035;-78
2024/02/03 01:31:48;;;;;;;16.13;9.00;;;;;;;10.34;66.64;98451.78;4942955;28;20037;-78
2024/02/03 01:34:13;;;;;;;14.15;8.48;;;;;;;10.40;66.50;98450.97;4967127;28;20098;-78
2024/02/03 01:36:39;;;;;;;13.70;8.52;;;;;;;10.32;65.94;98434.81;4959285;28;20078;-77
2024/02/03 01:39:06;;;;;;;15.65;9.32;;;;;;;10.43;66.19;98434.88;4959842;28;20065;-78
2024/02/03 01:41:32;;;;;;;14.35;9.25;;;;;;;10.29;66.18;98425.56;4936421;28;20052;-78
2024/02/03 01:43:57;;;;;;;15.27;8.68;;;;;;;10.51;65.98;98444.25;4959996;28;20076;-78
2024/02/03 01:46:22;;;;;;;15.90;9.25;;;;;;;10.52;65.07;98434.63;4950452;28;20132;-78
2024/02/03 01:48:48;;;;;;;15.00;9.32;;;;;;;10.40;66.22;98440.53;4944433;28;20469;-78
2024/02/03 01:51:16;;;;;;;16.48;9.57;;;;;;;10.47;65.36;98437.91;4956553;28;20033;-78
2024/02/03 01:53:42;;;;;;;16.45;8.88;;;;;;;10.47;65.68;98445.72;4952044;28;20498;-78
2024/02/03 01:56:08;;;;;;;18.25;10.32;;;;;;;10.45;65.61;98445.09;4961022;28;20038;-79
2024/02/03 01:58:33;;;;;;;16.98;9.60;;;;;;;10.44;65.87;98446.91;4964614;28;20172;-78
2024/02/03 02:00:59;;;;;;;15.75;9.38;;;;;;;10.51;66.09;98444.25;4955117;28;20596;-78
2024/02/03 02:03:25;;;;;;;15.43;9.85;;;;;;;10.38;65.44;98447.75;4968590;28;20528;-78
2024/02/03 02:05:50;;;;;;;16.17;9.18;;;;;;;10.38;65.83;98445.16;4961987;28;20065;-78
2024/02/03 02:08:16;;;;;;;15.10;9.00;;;;;;;10.49;65.79;98443.69;4951104;28;20498;-78
2024/02/03 02:10:42;;;;;;;15.63;9.88;;;;;;;10.51;65.69;98439.06;4954008;28;20038;-78
2024/02/03 02:13:10;;;;;;;15.52;9.85;;;;;;;10.40;66.06;98443.16;4956131;28;20095;-78
2024/02/03 02:15:36;;;;;;;13.70;8.00;;;;;;;10.38;65.70;98439.94;4935330;28;20031;-78
2024/02/03 02:18:02;;;;;;;15.60;9.60;;;;;;;10.48;65.59;98436.88;4962603;28;20485;-78
2024/02/03 02:20:27;;;;;;;16.20;9.45;;;;;;;10.50;65.40;98434.84;4939340;28;20108;-79
2024/02/03 02:22:53;;;;;;;18.65;9.50;;;;;;;10.41;65.61;98430.91;4955250;28;20129;-78
2024/02/03 02:25:19;;;;;;;16.35;9.38;;;;;;;10.33;65.99;98431.97;4955211;28;20608;-79
2024/02/03 02:27:44;;;;;;;16.48;9.55;;;;;;;10.28;66.68;98437.78;4950945;28;20069;-78
2024/02/03 02:30:10;;;;;;;17.55;10.13;;;;;;;10.34;66.18;98441.38;4980496;28;20026;-78
2024/02/03 02:32:38;;;;;;;17.15;11.00;;;;;;;10.33;65.85;98438.97;4946999;28;20035;-78
2024/02/03 02:35:04;;;;;;;15.27;9.07;;;;;;;10.44;65.76;98428.69;4979848;28;20039;-78
2024/02/03 02:37:30;;;;;;;17.38;10.18;;;;;;;10.20;66.75;98432.84;4975113;28;20171;-78
2024/02/03 02:39:56;;;;;;;15.27;9.70;;;;;;;10.40;66.01;98439.72;5015505;28;20023;-78
2024/02/03 02:42:22;;;;;;;17.23;8.70;;;;;;;10.25;66.48;98440.03;4969571;28;20046;-78
2024/02/03 02:44:47;;;;;;;16.27;9.80;;;;;;;10.18;66.93;98431.44;4998651;28;20039;-78
2024/02/03 02:47:12;;;;;;;14.45;8.40;;;;;;;10.25;66.40;98433.00;4967293;28;20069;-78
2024/02/03 02:49:38;;;;;;;16.98;10.25;;;;;;;10.30;66.15;98427.16;4981175;28;20035;-79
2024/02/03 02:52:04;;;;;;;16.70;9.50;;;;;;;10.09;66.44;98423.09;4967672;28;20049;-79
2024/02/03 02:54:29;;;;;;;13.38;8.05;;;;;;;10.25;66.04;98424.41;4942503;28;20066;-78
2024/02/03 02:56:54;;;;;;;15.98;8.82;;;;;;;10.36;65.86;98420.34;4959493;28;20337;-78
2024/02/03 02:59:20;;;;;;;15.35;8.38;;;;;;;10.40;65.72;98426.72;4997592;28;20050;-78
2024/02/03 03:01:45;;;;;;;16.15;8.23;;;;;;;10.24;65.94;98426.19;4935448;28;20066;-81
2024/02/03 03:04:11;;;;;;;15.68;8.38;;;;;;;10.24;65.54;98420.19;4944444;28;20054;-81
2024/02/03 03:06:36;;;;;;;16.15;8.43;;;;;;;10.11;66.91;98431.50;4975066;28;20030;-83
2024/02/03 03:09:01;;;;;;;15.77;8.05;;;;;;;10.17;66.43;98425.44;4982192;28;20059;-83
2024/02/03 03:11:27;;;;;;;15.13;8.00;;;;;;;10.24;66.00;98434.00;4961110;28;20516;-81
2024/02/03 03:13:52;;;;;;;17.50;8.55;;;;;;;10.06;66.34;98424.31;4964353;28;20031;-83
2024/02/03 03:16:18;;;;;;;14.80;8.85;;;;;;;10.24;66.05;98428.00;4951213;28;20038;-83
2024/02/03 03:18:43;;;;;;;15.30;8.40;;;;;;;10.24;66.20;98436.59;4963342;28;20030;-84
2024/02/03 03:21:09;;;;;;;14.35;8.13;;;;;;;10.32;65.29;98440.81;4960958;28;20058;-85
2024/02/03 03:23:34;;;;;;;14.75;8.20;;;;;;;10.27;65.82;98440.59;4951587;28;20030;-84
2024/02/03 03:26:00;;;;;;;15.60;8.80;;;;;;;10.21;65.57;98438.81;4977528;28;20102;-82
2024/02/03 03:28:26;;;;;;;14.18;7.53;;;;;;;10.23;65.59;98450.63;4955727;28;20054;-84
2024/02/03 03:30:51;;;;;;;12.82;7.97;;;;;;;10.12;66.03;98457.28;4943693;28;20031;-84
2024/02/03 03:33:17;;;;;;;12.52;7.63;;;;;;;9.93;66.92;98453.78;4943763;28;20115;-83
2024/02/03 03:35:43;;;;;;;12.63;7.65;;;;;;;10.04;66.54;98451.53;4950482;28;20439;-84
2024/02/03 03:38:10;;;;;;;12.05;7.00;;;;;;;9.97;66.61;98446.38;4942486;28;20474;-82
2024/02/03 03:40:37;;;;;;;12.93;7.40;;;;;;;10.18;66.14;98444.44;4970460;28;20092;-78
2024/02/03 03:43:03;;;;;;;14.40;7.40;;;;;;;10.17;66.01;98442.88;4959888;28;20105;-79
2024/02/03 03:45:28;;;;;;;12.50;7.28;;;;;;;9.87;67.29;98439.03;4970522;28;20487;-78
2024/02/03 03:47:54;;;;;;;11.48;6.82;;;;;;;10.07;65.86;98443.31;4972759;28;20042;-77
2024/02/03 03:50:19;;;;;;;11.10;6.63;;;;;;;9.99;66.55;98443.56;4958901;28;20037;-78
2024/02/03 03:52:44;;;;;;;10.73;6.43;;;;;;;10.09;65.03;98443.91;4963722;28;20035;-78
2024/02/03 03:55:10;;;;;;;10.13;6.07;;;;;;;10.20;65.53;98448.44;4950781;28;20037;-78
2024/02/03 03:57:35;;;;;;;10.27;5.93;;;;;;;10.08;65.32;98450.91;4957522;28;20428;-79
2024/02/03 04:00:04;;;;;;;8.43;5.22;;;;;;;10.03;65.41;98442.16;4947219;28;20180;-78
2024/02/03 04:02:30;;;;;;;9.38;5.93;;;;;;;10.02;65.92;98456.16;4963124;28;20109;-79
2024/02/03 04:04:55;;;;;;;8.48;5.38;;;;;;;10.07;65.97;98456.34;4962443;28;20164;-78
2024/02/03 04:07:20;;;;;;;8.00;4.75;;;;;;;10.01;65.29;98465.00;4963147;28;20049;-78
2024/02/03 04:09:48;;;;;;;8.40;4.68;;;;;;;9.98;66.25;98466.19;4955703;28;20037;-78
2024/02/03 04:12:17;;;;;;;7.60;4.60;;;;;;;10.03;65.70;98468.19;4949185;28;20047;-84
2024/02/03 04:14:42;;;;;;;7.05;4.25;;;;;;;10.08;65.37;98470.94;4982741;28;20107;-81
2024/02/03 04:17:08;;;;;;;6.72;3.90;;;;;;;10.03;65.16;98461.16;4957075;28;20543;-82
2024/02/03 04:19:34;;;;;;;6.70;3.85;;;;;;;10.01;65.85;98463.19;4973271;28;20397;-84
2024/02/03 04:22:00;;;;;;;6.10;3.58;;;;;;;10.02;65.76;98462.16;4951287;28;20035;-83
2024/02/03 04:24:25;;;;;;;5.72;4.13;;;;;;;10.09;65.74;98460.34;4956370;28;20026;-81
2024/02/03 04:26:51;;;;;;;5.45;3.53;;;;;;;10.15;65.12;98460.50;4970747;28;20048;-84
2024/02/03 04:29:16;;;;;;;7.25;3.97;;;;;;;10.13;65.09;98460.72;4951202;28;20117;-83
2024/02/03 04:31:42;;;;;;;5.97;4.03;;;;;;;10.18;65.45;98455.69;4939274;28;20042;-84
2024/02/03 04:34:08;;;;;;;4.95;3.13;;;;;;;10.29;64.85;98460.19;4970507;28;20063;-84
2024/02/03 04:36:34;;;;;;;4.70;3.35;;;;;;;10.20;65.23;98450.25;4941194;28;20038;-82
2024/02/03 04:38:59;;;;;;;5.43;3.63;;;;;;;10.19;64.89;98456.47;4938911;28;20038;-84
2024/02/03 04:41:24;;;;;;;4.18;2.80;;;;;;;10.18;64.79;98450.47;4936919;28;20390;-83
2024/02/03 04:43:50;;;;;;;4.60;2.97;;;;;;;10.07;65.45;98458.94;4954038;28;20035;-82
2024/02/03 04:46:15;;;;;;;4.38;2.92;;;;;;;10.13;65.12;98445.09;4960641;28;20050;-83
2024/02/03 04:48:42;;;;;;;4.85;2.90;;;;;;;10.10;65.40;98448.13;4936979;28;20557;-84
2024/02/03 04:51:08;;;;;;;4.72;3.10;;;;;;;10.16;64.95;98443.88;4959257;28;20113;-80
2024/02/03 04:53:33;;;;;;;5.10;2.65;;;;;;;10.10;65.52;98443.69;4955314;28;20109;-83
2024/02/03 04:55:58;;;;;;;5.72;2.80;;;;;;;10.18;65.05;98434.84;4970724;28;20493;-85
2024/02/03 04:58:24;;;;;;;4.18;2.78;;;;;;;10.19;65.04;98431.22;4967834;28;20039;-84
2024/02/03 05:00:49;;;;;;;3.50;2.63;;;;;;;10.13;65.33;98438.09;4958000;28;20036;-85
2024/02/03 05:03:15;;;;;;;3.53;2.22;;;;;;;10.13;65.21;98437.28;4939086;28;20740;-84
2024/02/03 05:05:40;;;;;;;3.90;2.33;;;;;;;10.13;65.34;98432.88;4957433;28;20121;-84
2024/02/03 05:08:06;;;;;;;3.65;2.28;;;;;;;10.23;65.29;98415.97;4938802;28;20027;-83
2024/02/03 05:10:31;;;;;;;4.43;2.30;;;;;;;10.14;65.74;98412.84;4946722;28;20037;-84
2024/02/03 05:12:57;;;;;;;3.55;2.20;;;;;;;10.28;65.30;98419.56;4939213;28;20087;-78
2024/02/03 05:15:23;;;;;;;3.50;2.10;;;;;;;10.18;64.82;98413.22;4969670;28;20034;-78
2024/02/03 05:17:49;;;;;;;3.25;2.35;;;;;;;10.16;65.34;98410.84;4967905;28;20038;-78
2024/02/03 05:20:15;;;;;;;4.00;2.67;;;;;;;10.05;65.49;98408.91;4960567;28;20122;-78
2024/02/03 05:22:41;;;;;;;4.63;2.85;;;;;;;10.16;65.36;98410.84;4946164;28;20054;-77
2024/02/03 05:25:06;;;;;;;3.03;1.85;;;;;;;9.99;65.07;98402.75;4939491;28;20113;-79
2024/02/03 05:27:32;;;;;;;5.32;2.00;;;;;;;10.07;64.93;98412.88;4931159;28;20486;-78
2024/02/03 05:29:57;;;;;;;3.22;2.05;;;;;;;10.10;65.55;98417.66;4958446;28;20226;-78
2024/02/03 05:32:23;;;;;;;3.97;2.58;;;;;;;10.01;64.97;98418.94;4960452;28;20064;-78
2024/02/03 05:34:48;;;;;;;3.75;2.40;;;;;;;10.07;65.31;98407.69;4939303;28;20042;-78
2024/02/03 05:37:13;;;;;;;2.88;1.98;;;;;;;10.06;65.34;98424.31;4954295;28;20042;-77
2024/02/03 05:39:38;;;;;;;2.03;1.42;;;;;;;10.03;65.18;98413.53;4959160;28;20080;-78
2024/02/03 05:42:04;;;;;;;5.53;2.33;;;;;;;10.12;65.75;98420.84;4973270;28;20066;-78
2024/02/03 05:44:29;;;;;;;2.50;2.08;;;;;;;10.06;64.94;98406.09;4956237;28;20027;-78
2024/02/03 05:46:55;;;;;;;2.78;1.67;;;;;;;10.09;65.28;98408.28;4947586;28;20458;-78
2024/02/03 05:49:21;;;;;;;2.90;1.88;;;;;;;10.06;65.03;98405.31;4960523;28;20125;-78
2024/02/03 05:51:46;;;;;;;2.47;1.63;;;;;;;10.07;65.41;98418.09;4969233;28;20514;-78
2024/02/03 05:54:12;;;;;;;2.42;1.88;;;;;;;10.09;65.31;98413.50;4956044;28;20040;-78
2024/02/03 05:56:37;;;;;;;2.80;1.80;;;;;;;10.11;65.48;98413.28;4953107;28;20113;-78
2024/02/03 05:59:03;;;;;;;2.60;1.77;;;;;;;10.14;65.42;98423.25;4963384;28;20042;-78
2024/02/03 06:01:29;;;;;;;2.38;1.50;;;;;;;10.12;65.41;98409.66;4943669;28;20034;-82
2024/02/03 06:03:54;;;;;;;2.70;1.70;;;;;;;10.17;64.96;98412.44;4952747;28;20806;-83
2024/02/03 06:06:19;;;;;;;2.42;1.92;;;;;;;10.17;65.38;98407.22;4953411;28;20030;-84
2024/02/03 06:08:45;;;;;;;3.45;1.70;;;;;;;10.06;65.06;98400.91;4950480;28;20166;-83
2024/02/03 06:11:11;;;;;;;2.10;1.90;;;;;;;10.11;65.43;98408.88;4946055;28;20042;-84
2024/02/03 06:13:37;;;;;;;2.50;1.80;;;;;;;10.12;65.36;98409.66;4938370;28;20041;-83
2024/02/03 06:16:03;;;;;;;3.33;1.80;;;;;;;10.06;65.45;98395.69;4958392;28;20031;-84
2024/02/03 06:18:28;;;;;;;2.92;2.08;;;;;;;10.05;65.22;98399.28;4958269;28;20035;-84
2024/02/03 06:20:53;;;;;;;2.75;1.95;;;;;;;10.13;65.34;98395.66;4958367;28;20419;-83
2024/02/03 06:23:19;;;;;;;2.50;1.95;;;;;;;10.08;65.48;98404.09;4945659;28;20047;-83
2024/02/03 06:25:44;;;;;;;2.38;1.88;;;;;;;10.01;65.14;98392.13;4942072;28;21158;-83
2024/02/03 06:28:11;;;;;;;2.55;1.83;;;;;;;9.96;65.51;98394.56;4954020;28;20027;-81
2024/02/03 06:30:37;;;;;;;2.20;2.00;;;;;;;10.04;65.70;98399.50;4948630;28;20291;-82
2024/02/03 06:33:04;;;;;;;2.45;1.90;;;;;;;9.94;66.00;98405.97;4974011;28;20041;-78
2024/02/03 06:35:29;;;;;;;2.70;2.00;;;;;;;10.06;66.19;98405.31;4962371;28;20034;-78
2024/02/03 06:37:54;;;;;;;2.40;1.90;;;;;;;10.03;65.75;98410.94;4958146;28;20042;-78
2024/02/03 06:40:21;;;;;;;2.65;2.08;;;;;;;9.98;65.69;98413.38;4968248;28;20047;-78
2024/02/03 06:42:48;;;;;;;3.78;1.88;;;;;;;10.02;65.69;98417.91;4941695;28;20549;-84
2024/02/03 06:45:14;;;;;;;3.95;2.13;;;;;;;10.06;65.70;98416.50;4955705;28;20176;-83
2024/02/03 06:47:40;;;;;;;2.47;1.80;;;;;;;10.10;65.56;98428.09;4939125;28;20042;-83
2024/02/03 06:50:06;;;;;;;2.72;2.00;;;;;;;10.04;64.93;98418.53;4957358;28;20054;-81
2024/02/03 06:52:33;;;;;;;2.28;1.83;;;;;;;10.07;65.72;98433.69;4967266;28;20039;-83
2024/02/03 06:54:58;;;;;;;2.47;1.85;;;;;;;10.15;65.69;98422.25;4939196;28;20482;-84
2024/02/03 06:57:23;;;;;;;3.05;1.98;;;;;;;10.11;65.45;98434.91;4941565;28;20026;-83
2024/02/03 06:59:49;;;;;;;2.60;2.22;;;;;;;10.11;65.46;98428.91;4968754;28;20072;-82
2024/02/03 07:02:14;;;;;;;2.75;1.83;;;;;;;10.11;65.29;98428.91;4960983;28;20071;-82
2024/02/03 07:04:39;;;;;;;2.72;2.10;;;;;;;10.17;65.61;98429.84;4958616;28;20573;-84
2024/02/03 07:07:05;;;;;;;2.40;1.90;;;;;;;10.13;65.56;98432.09;4957936;28;20031;-82
2024/02/03 07:09:30;;;;;;;2.53;1.90;;;;;;;10.06;65.64;98436.53;4940366;28;20495;-83
2024/02/03 07:11:56;;;;;;;3.58;2.30;;;;;;;10.11;65.18;98434.91;4960518;28;21940;-83
2024/02/03 07:14:22;;;;;;;2.67;2.10;;;;;;;10.18;65.56;98434.03;4940863;28;20039;-83
2024/02/03 07:16:47;;;;;;;2.15;1.58;;;;;;;10.23;65.07;98432.41;4945816;28;20486;-81
2024/02/03 07:19:12;;;;;;;4.45;2.55;;;;;;;10.18;65.35;98432.25;4971476;28;20043;-83
2024/02/03 07:21:38;;;;;;;3.53;2.13;;;;;;;10.08;65.66;98430.09;4960829;28;20513;-80
2024/02/03 07:24:03;;;;;;;3.15;2.10;;;;;;;10.11;65.69;98437.50;4969107;28;20041;-81
2024/02/03 07:26:29;;;;;;;3.15;2.50;;;;;;;10.11;65.46;98429.69;4944383;28;21207;-82
2024/02/03 07:28:54;;;;;;;3.80;2.22;;;;;;;10.15;65.82;98440.47;4940216;28;20074;-83
2024/02/03 07:31:29;;;;;;;3.63;2.13;;;;;;;10.20;65.24;98442.47;4939799;28;20129;-83
2024/02/03 07:33:58;;;;;;;3.28;2.40;;;;;;;10.15;65.66;98435.28;4957345;28;20065;-83
2024/02/03 07:36:24;;;;;;;3.60;1.92;;;;;;;9.97;65.59;98438.56;4959147;28;20548;-81
2024/02/03 07:38:52;;;;;;;4.68;2.70;;;;;;;10.08;65.50;98439.72;4939101;28;20335;-83
2024/02/03 07:41:18;;;;;;;3.00;1.75;;;;;;;10.02;66.36;98443.16;4957993;28;20035;-82
2024/02/03 07:43:44;;;;;;;3.17;2.10;;;;;;;10.07;65.73;98438.91;4958735;28;20113;-83
2024/02/03 07:46:12;;;;;;;3.22;2.58;;;;;;;10.23;65.85;98447.22;4952195;28;20400;-82
2024/02/03 07:48:38;;;;;;;3.72;2.13;;;;;;;10.07;65.26;98444.09;4941978;28;20095;-82
2024/02/03 07:51:05;;;;;;;2.70;1.75;;;;;;;10.04;65.84;98444.56;4952374;28;20026;-80
2024/02/03 07:53:30;;;;;;;2.58;2.17;;;;;;;9.96;65.85;98446.59;4958032;28;20060;-78
2024/02/03 07:55:55;;;;;;;3.95;1.83;;;;;;;9.92;65.55;98435.78;4956552;28;20038;-78
2024/02/03 07:58:21;;;;;;;2.50;1.90;;;;;;;9.85;66.29;98445.44;4976379;28;20038;-78
2024/02/03 08:00:46;;;;;;;3.78;2.10;;;;;;;9.87;65.90;98441.63;4956755;28;20114;-78
2024/02/03 08:03:12;;;;;;;2.78;1.80;;;;;;;9.91;66.25;98437.59;4977194;28;20468;-79
2024/02/03 08:05:37;;;;;;;3.47;2.00;;;;;;;9.95;65.77;98443.19;4963908;28;20034;-77
2024/02/03 08:08:03;;;;;;;3.28;1.70;;;;;;;9.99;66.08;98446.16;4968777;28;20031;-79
2024/02/03 08:10:29;;;;;;;3.33;1.65;;;;;;;9.99;65.80;98446.97;4967316;28;20034;-78
2024/02/03 08:12:54;;;;;;;2.22;1.67;;;;;;;10.01;66.22;98446.78;4963517;28;20416;-79
2024/02/03 08:15:20;;;;;;;3.33;1.60;;;;;;;9.99;65.95;98446.16;4959479;28;20074;-78
2024/02/03 08:17:45;;;;;;;2.30;1.60;;;;;;;9.96;66.40;98451.81;4956698;28;20034;-79
2024/02/03 08:20:12;;;;;;;2.40;1.50;;;;;;;9.96;66.00;98454.41;4960619;28;20037;-78
2024/02/03 08:22:38;;;;;;;2.72;1.60;;;;;;;9.97;66.03;98453.38;4959380;28;20034;-78
2024/02/03 08:25:04;;;;;;;2.42;1.48;;;;;;;9.82;66.09;98446.66;4959139;28;20065;-79
2024/02/03 08:27:55;;;;;;;2.83;1.70;;;;;;;9.79;67.01;98444.47;4971084;28;20340;-78
2024/02/03 08:30:20;;;;;;;2.03;1.20;;;;;;;9.73;67.00;98442.69;4957309;28;20034;-79
2024/02/03 08:32:45;;;;;;;2.45;1.35;;;;;;;9.84;66.98;98436.84;4952966;28;20559;-78
2024/02/03 08:35:11;;;;;;;2.53;1.25;;;;;;;9.99;66.54;98435.75;4940415;28;20026;-78
2024/02/03 08:37:36;;;;;;;1.88;1.08;;;;;;;9.97;66.05;98430.75;4961463;28;20113;-79
2024/02/03 08:40:01;;;;;;;1.77;1.08;;;;;;;9.81;67.40;98426.84;4948376;28;20035;-79
2024/02/03 08:42:27;;;;;;;2.35;1.65;;;;;;;9.97;66.39;98428.16;4958095;28;20081;-79
2024/02/03 08:44:52;;;;;;;3.75;1.90;;;;;;;9.94;66.76;98416.38;4946748;28;20042;-78
2024/02/03 08:47:18;;;;;;;2.10;1.50;;;;;;;9.93;66.45;98412.16;4960983;28;20040;-78
2024/02/03 08:49:51;;;;;;;2.00;1.08;;;;;;;10.20;65.99;98417.22;4953793;28;20038;-78
2024/02/03 08:52:17;;;;;;;1.67;1.38;;;;;;;10.11;66.26;98408.09;4959044;28;21107;-78
2024/02/03 08:54:42;;;;;;;4.03;1.27;;;;;;;9.93;66.76;98412.16;4963850;28;20129;-78
2024/02/03 08:57:07;;;;;;;1.90;1.15;;;;;;;9.99;67.40;98405.34;4939943;28;20046;-78
2024/02/03 08:59:33;;;;;;;2.28;1.65;;;;;;;10.13;66.29;98404.25;4966414;28;20042;-80
2024/02/03 09:01:58;;;;;;;2.20;0.98;;;;;;;10.09;66.32;98404.88;4961306;28;20042;-81
2024/02/03 09:04:23;;;;;;;2.13;1.30;;;;;;;10.09;66.22;98404.88;4967205;28;20034;-82
2024/02/03 09:06:49;;;;;;;1.60;1.08;;;;;;;10.05;67.20;98399.28;4938719;28;20487;-80
2024/02/03 09:09:14;;;;;;;1.75;1.00;;;;;;;9.91;67.03;98406.38;4950052;28;20187;-81
2024/02/03 09:11:39;;;;;;;1.50;1.23;;;;;;;10.07;66.82;98409.50;4941247;28;20038;-81
2024/02/03 09:14:05;;;;;;;3.30;1.20;;;;;;;10.08;66.66;98405.91;4946629;28;20041;-80
2024/02/03 09:16:30;;;;;;;1.85;1.20;;;;;;;10.10;66.80;98404.66;4948793;28;20030;-80
2024/02/03 09:18:55;;;;;;;1.65;1.10;;;;;;;10.22;66.71;98404.78;4930573;28;20430;-80
2024/02/03 09:21:21;;;;;;;1.85;1.42;;;;;;;10.19;66.66;98414.81;4951999;28;20046;-83
2024/02/03 09:23:46;;;;;;;1.35;1.05;;;;;;;9.96;67.80;98415.38;4969554;28;20038;-79
2024/02/03 09:26:11;;;;;;;2.58;1.30;;;;;;;10.12;67.31;98412.25;4944225;28;20104;-81
2024/02/03 09:28:37;;;;;;;1.52;1.02;;;;;;;10.28;66.49;98427.38;5025221;28;20045;-80
2024/02/03 09:31:03;;;;;;;1.42;1.00;;;;;;;10.31;66.72;98423.53;4958140;28;20064;-79
2024/02/03 09:33:29;;;;;;;1.73;1.20;;;;;;;10.32;66.53;98421.78;4939695;28;20042;-81
2024/02/03 09:35:54;;;;;;;1.85;1.40;;;;;;;10.35;66.42;98422.16;4933271;28;20410;-80
2024/02/03 09:38:19;;;;;;;2.50;1.30;;;;;;;10.40;66.56;98421.50;4942174;28;20031;-81
2024/02/03 09:40:45;;;;;;;1.98;1.42;;;;;;;10.24;66.80;98417.59;4973313;28;20034;-81
2024/02/03 09:43:11;;;;;;;2.05;1.25;;;;;;;10.21;66.74;98418.81;4936237;28;20109;-81
2024/02/03 09:45:37;;;;;;;2.25;1.33;;;;;;;10.23;66.72;98418.59;4962749;28;20124;-80
2024/02/03 09:48:02;;;;;;;1.67;1.33;;;;;;;10.36;66.45;98431.53;4986764;28;20035;-80
2024/02/03 09:50:28;;;;;;;2.35;1.55;;;;;;;10.27;66.45;98423.16;4954808;28;20023;-81
2024/02/03 09:52:54;;;;;;;1.88;1.63;;;;;;;10.36;66.47;98435.97;4967910;28;20508;-81
2024/02/03 09:55:19;;;;;;;2.80;1.83;;;;;;;10.45;66.51;98432.91;4937559;28;20777;-81
2024/02/03 09:57:48;;;;;;;2.40;1.73;;;;;;;10.53;66.84;98436.25;4936662;28;20121;-80
2024/02/03 10:00:16;;;;;;;2.97;1.90;;;;;;;10.45;67.05;98435.50;4957409;28;20039;-80
2024/02/03 10:02:42;;;;;;;4.72;2.00;;;;;;;10.51;66.16;98420.03;4961378;28;20034;-81
2024/02/03 10:05:08;;;;;;;3.63;2.17;;;;;;;10.51;66.60;98426.03;4951724;28;20510;-80
2024/02/03 10:07:33;;;;;;;3.50;2.28;;;;;;;10.58;66.64;98436.41;4969885;28;20241;-81
2024/02/03 10:10:06;;;;;;;3.90;2.75;;;;;;;10.63;66.28;98447.78;4940672;28;20054;-80
2024/02/03 10:12:32;;;;;;;3.10;2.00;;;;;;;10.55;66.51;98445.41;4949041;28;20400;-82
2024/02/03 10:15:07;;;;;;;3.55;2.28;;;;;;;10.71;66.31;98448.50;4931486;28;20054;-80
2024/02/03 10:17:34;;;;;;;3.38;2.20;;;;;;;10.38;67.00;98449.56;4942239;28;20031;-80
2024/02/03 10:19:59;;;;;;;4.30;3.03;;;;;;;10.50;67.33;98434.84;4965894;28;20207;-81
2024/02/03 10:22:26;;;;;;;3.58;2.40;;;;;;;10.56;66.56;98435.81;4939875;28;20489;-81
2024/02/03 10:24:52;;;;;;;3.22;2.42;;;;;;;10.49;67.15;98448.91;4954380;28;20070;-81
2024/02/03 10:27:22;;;;;;;3.55;2.25;;;;;;;10.54;66.74;98443.03;4946379;28;20062;-80
2024/02/03 10:29:54;;;;;;;3.85;2.47;;;;;;;10.54;66.65;98443.84;4953758;28;20031;-80
2024/02/03 10:32:20;;;;;;;4.22;2.45;;;;;;;10.53;66.62;98446.66;4958222;28;20092;-82
2024/02/03 10:34:46;;;;;;;3.55;2.40;;;;;;;10.61;66.26;98452.41;4958536;28;20482;-82
2024/02/03 10:37:11;;;;;;;3.70;2.35;;;;;;;10.57;66.62;98448.59;4939992;28;20039;-81
2024/02/03 10:39:38;;;;;;;2.90;1.90;;;;;;;10.70;66.67;98439.91;4958969;28;20121;-81
2024/02/03 10:42:04;;;;;;;2.75;1.85;;;;;;;10.50;66.18;98440.06;4965359;28;20609;-81
2024/02/03 10:44:31;;;;;;;3.30;2.25;;;;;;;10.58;66.99;98431.19;4957142;28;20030;-79
2024/02/03 10:47:00;;;;;;;3.70;2.70;;;;;;;10.74;66.40;98438.44;4949392;28;20030;-80
2024/02/03 10:49:32;;;;;;;3.55;2.38;;;;;;;10.81;65.89;98438.41;4953644;28;20041;-81
2024/02/03 10:52:01;;;;;;;3.00;2.35;;;;;;;10.56;66.58;98421.00;4952935;28;20049;-81
2024/02/03 10:54:28;;;;;;;3.75;2.63;;;;;;;10.62;66.94;98425.31;4950714;28;20084;-83
2024/02/03 10:56:54;;;;;;;3.60;2.42;;;;;;;10.51;67.15;98422.66;4944948;28;20069;-82
2024/02/03 10:59:20;;;;;;;3.58;2.45;;;;;;;10.66;67.48;98425.72;4977381;28;20078;-80
2024/02/03 11:01:46;;;;;;;3.58;2.45;;;;;;;10.75;66.46;98419.22;4968543;28;20063;-81
2024/02/03 11:04:14;;;;;;;3.53;2.30;;;;;;;10.81;67.03;98414.94;4944471;28;20073;-82
2024/02/03 11:06:40;;;;;;;2.95;1.92;;;;;;;10.74;66.41;98422.81;4973283;28;20038;-81
2024/02/03 11:09:13;;;;;;;3.85;2.53;;;;;;;10.83;65.94;98425.94;4947194;28;20108;-80
2024/02/03 11:11:44;;;;;;;3.08;2.08;;;;;;;10.74;66.47;98433.25;4972375;28;20081;-82
2024/02/03 11:14:17;;;;;;;3.17;2.42;;;;;;;10.77;66.43;98419.00;4967593;28;20038;-81
2024/02/03 11:16:51;;;;;;;3.55;2.90;;;;;;;10.92;66.61;98419.47;4942360;28;20042;-82
2024/02/03 11:19:16;;;;;;;3.60;2.80;;;;;;;10.93;66.38;98421.03;4959208;28;20034;-81
2024/02/03 11:21:42;;;;;;;2.50;2.28;;;;;;;10.79;67.10;98415.16;4965660;28;20053;-78
2024/02/03 11:24:09;;;;;;;3.40;2.40;;;;;;;10.81;66.39;98418.38;4941798;28;20062;-81
2024/02/03 11:26:38;;;;;;;3.42;2.58;;;;;;;10.90;66.69;98413.69;4964501;28;20390;-82